Time;durP1;ratioP1;P1;durP2;ratioP2;P2;SDS_P1;SDS_P2;PMS_P1;PMS_P2;Temp;Humidity;BMP_temperature;BMP_pressure;BME280_temperature;BME280_humidity;BME280_pressure;Samples;Min_cycle;Max_cycle;Signal;HPM_P1;HPM_P2
2022/12/02 00:00:47;;;;;;;45.88;18.33;;;;;;;;;;5109915;28;20481;-69
2022/12/02 00:03:17;;;;;;;41.80;18.83;;;;;;;;;;5110074;28;20055;-69
2022/12/02 00:05:43;;;;;;;47.78;21.17;;;;;;;;;;5110470;28;20251;-69
2022/12/02 00:08:20;;;;;;;46.92;19.95;;;;;;;;;;5109933;28;20066;-70
2022/12/02 00:10:46;;;;;;;45.90;19.85;;;;;;;;;;5110047;28;20478;-69
2022/12/02 00:13:25;;;;;;;44.75;17.95;;;;;;;;;;5109939;28;20027;-69
2022/12/02 00:16:02;;;;;;;46.83;20.50;;;;;;;;;;5109953;28;20027;-68
2022/12/02 00:18:28;;;;;;;43.65;18.00;;;;;;;;;;5110042;28;20106;-67
2022/12/02 00:20:54;;;;;;;39.83;18.40;;;;;;;;;;5112495;28;20066;-69
2022/12/02 00:23:20;;;;;;;45.30;20.15;;;;;;;;;;5112484;28;20546;-70
2022/12/02 00:25:51;;;;;;;42.70;19.23;;;;;;;;;;5113756;28;20102;-68
2022/12/02 00:28:17;;;;;;;44.30;18.17;;;;;;;;;;5113765;28;20023;-69
2022/12/02 00:30:43;;;;;;;41.97;19.40;;;;;;;;;;5113517;27;20080;-69
2022/12/02 00:33:09;;;;;;;45.70;21.10;;;;;;;;;;5113763;28;20028;-69
2022/12/02 00:35:35;;;;;;;50.33;18.65;;;;;;;;;;5113642;28;20047;-69
2022/12/02 00:38:00;;;;;;;49.05;21.02;;;;;;;;;;5113662;27;20105;-69
2022/12/02 00:40:26;;;;;;;44.00;17.60;;;;;;;;;;5113738;28;20469;-69
2022/12/02 00:42:52;;;;;;;51.50;20.98;;;;;;;;;;5113612;28;20371;-69
2022/12/02 00:48:02;;;;;;;49.63;21.10;;;;;;;;;;5113639;28;20053;-69
2022/12/02 00:50:28;;;;;;;48.20;19.10;;;;;;;;;;5113484;28;20027;-69
2022/12/02 00:52:53;;;;;;;47.38;18.30;;;;;;;;;;5113424;28;20118;-69
2022/12/02 00:55:19;;;;;;;43.65;19.75;;;;;;;;;;5113319;28;20055;-69
2022/12/02 00:57:45;;;;;;;47.28;19.38;;;;;;;;;;5113327;28;20027;-69
2022/12/02 01:00:11;;;;;;;42.15;18.95;;;;;;;;;;5113203;28;20034;-68
2022/12/02 01:02:37;;;;;;;37.97;17.80;;;;;;;;;;5113110;28;20020;-70
2022/12/02 01:05:03;;;;;;;41.13;17.67;;;;;;;;;;5112994;28;20107;-70
2022/12/02 01:07:28;;;;;;;38.45;18.05;;;;;;;;;;5112910;28;20031;-69
2022/12/02 01:09:54;;;;;;;47.72;20.20;;;;;;;;;;5113063;28;20432;-68
2022/12/02 01:12:20;;;;;;;41.75;18.80;;;;;;;;;;5112801;28;20034;-68
2022/12/02 01:14:46;;;;;;;40.95;19.42;;;;;;;;;;5112976;28;20027;-68
2022/12/02 01:17:11;;;;;;;44.63;20.02;;;;;;;;;;5111547;28;20032;-68
2022/12/02 01:19:36;;;;;;;43.38;19.60;;;;;;;;;;5112948;28;20024;-68
2022/12/02 01:22:02;;;;;;;44.35;18.58;;;;;;;;;;5112874;28;20023;-68
2022/12/02 01:24:27;;;;;;;40.45;18.35;;;;;;;;;;5112949;28;20097;-68
2022/12/02 01:26:53;;;;;;;44.00;19.30;;;;;;;;;;5112562;28;20027;-69
2022/12/02 01:29:18;;;;;;;42.60;18.95;;;;;;;;;;5112599;28;20028;-69
2022/12/02 01:31:44;;;;;;;41.50;17.92;;;;;;;;;;5112815;28;20024;-68
2022/12/02 01:34:09;;;;;;;38.80;17.63;;;;;;;;;;5112643;28;20442;-70
2022/12/02 01:36:35;;;;;;;36.65;17.27;;;;;;;;;;5115854;28;20046;-68
2022/12/02 01:39:00;;;;;;;42.35;18.33;;;;;;;;;;5116985;28;20038;-67
2022/12/02 01:41:26;;;;;;;43.70;18.33;;;;;;;;;;5116676;28;20492;-69
2022/12/02 01:43:51;;;;;;;40.88;18.88;;;;;;;;;;5116653;28;20034;-71
2022/12/02 01:46:17;;;;;;;41.50;18.75;;;;;;;;;;5110327;28;20030;-70
2022/12/02 01:48:43;;;;;;;37.88;17.40;;;;;;;;;;5106043;28;20031;-69
2022/12/02 01:51:08;;;;;;;39.67;17.45;;;;;;;;;;5102941;28;20398;-70
2022/12/02 01:53:35;;;;;;;40.85;17.70;;;;;;;;;;5112825;28;20022;-69
2022/12/02 01:56:00;;;;;;;43.85;19.67;;;;;;;;;;5099779;28;20386;-70
2022/12/02 01:58:28;;;;;;;43.63;18.75;;;;;;;;;;5108793;28;20020;-71
2022/12/02 02:00:55;;;;;;;43.75;19.00;;;;;;;;;;5107243;28;20020;-71
2022/12/02 02:03:20;;;;;;;40.85;17.50;;;;;;;;;;5101162;28;20066;-73
2022/12/02 02:05:47;;;;;;;41.88;18.90;;;;;;;;;;5112336;28;20043;-70
2022/12/02 02:08:13;;;;;;;36.75;16.58;;;;;;;;;;5114930;28;20031;-70
2022/12/02 02:10:39;;;;;;;39.05;17.77;;;;;;;;;;5114704;28;20064;-70
2022/12/02 02:13:07;;;;;;;37.70;16.77;;;;;;;;;;5114830;28;20062;-69
2022/12/02 02:15:33;;;;;;;36.00;16.02;;;;;;;;;;5114820;28;20028;-69
2022/12/02 02:18:00;;;;;;;38.67;18.38;;;;;;;;;;5113355;28;20071;-69
2022/12/02 02:20:27;;;;;;;40.83;17.63;;;;;;;;;;5114570;28;20047;-70
2022/12/02 02:23:04;;;;;;;37.42;18.65;;;;;;;;;;5114731;28;20016;-69
2022/12/02 02:25:42;;;;;;;35.15;17.35;;;;;;;;;;5114261;28;20016;-70
2022/12/02 02:28:08;;;;;;;38.30;18.73;;;;;;;;;;5114169;28;20397;-69
2022/12/02 02:30:35;;;;;;;36.20;16.85;;;;;;;;;;5114491;27;20108;-69
2022/12/02 02:33:03;;;;;;;31.17;14.07;;;;;;;;;;5114494;28;20153;-71
2022/12/02 02:35:30;;;;;;;34.15;16.13;;;;;;;;;;5114476;28;20042;-72
2022/12/02 02:37:56;;;;;;;33.53;15.43;;;;;;;;;;5115847;28;20027;-70
2022/12/02 02:40:24;;;;;;;35.60;15.98;;;;;;;;;;5115550;28;20028;-72
2022/12/02 02:42:52;;;;;;;37.10;17.98;;;;;;;;;;5115788;28;20054;-71
2022/12/02 02:45:23;;;;;;;34.20;17.05;;;;;;;;;;5108905;28;20031;-71
2022/12/02 02:47:49;;;;;;;35.70;17.98;;;;;;;;;;5094626;28;20020;-71
2022/12/02 02:50:15;;;;;;;30.40;14.00;;;;;;;;;;5099044;28;20034;-68
2022/12/02 02:52:41;;;;;;;32.63;14.90;;;;;;;;;;5115593;28;20478;-70
2022/12/02 02:55:11;;;;;;;34.28;15.15;;;;;;;;;;5113576;28;20076;-72
2022/12/02 02:57:37;;;;;;;33.22;16.33;;;;;;;;;;5095157;28;20024;-72
2022/12/02 03:00:03;;;;;;;35.45;17.00;;;;;;;;;;5097606;28;20059;-72
2022/12/02 03:02:29;;;;;;;35.05;16.65;;;;;;;;;;5115351;28;20028;-69
2022/12/02 03:04:55;;;;;;;32.55;16.60;;;;;;;;;;5115458;28;20430;-70
2022/12/02 03:07:21;;;;;;;33.45;18.02;;;;;;;;;;5098165;28;20372;-70
2022/12/02 03:09:47;;;;;;;32.58;15.68;;;;;;;;;;5098734;28;20050;-71
2022/12/02 03:12:13;;;;;;;28.38;14.20;;;;;;;;;;5107062;28;20098;-71
2022/12/02 03:14:39;;;;;;;29.65;13.95;;;;;;;;;;5106139;28;20031;-70
2022/12/02 03:17:04;;;;;;;30.02;15.32;;;;;;;;;;5099805;27;20031;-71
2022/12/02 03:19:32;;;;;;;28.00;14.45;;;;;;;;;;5111160;28;20088;-68
2022/12/02 03:21:58;;;;;;;31.08;15.57;;;;;;;;;;5100209;28;20035;-69
2022/12/02 03:24:24;;;;;;;30.17;15.13;;;;;;;;;;5105093;28;20024;-68
2022/12/02 03:26:50;;;;;;;31.35;15.15;;;;;;;;;;5112891;28;20031;-69
2022/12/02 03:29:16;;;;;;;28.13;14.57;;;;;;;;;;5114863;28;20081;-68
2022/12/02 03:31:42;;;;;;;29.00;15.75;;;;;;;;;;5114803;28;20467;-69
2022/12/02 03:34:08;;;;;;;27.63;14.70;;;;;;;;;;5114599;28;20519;-70
2022/12/02 03:36:34;;;;;;;26.23;14.60;;;;;;;;;;5114685;28;20035;-69
2022/12/02 03:39:00;;;;;;;26.40;14.20;;;;;;;;;;5114642;28;20378;-69
2022/12/02 03:41:26;;;;;;;23.92;13.20;;;;;;;;;;5114667;28;20027;-70
2022/12/02 03:43:54;;;;;;;23.95;12.30;;;;;;;;;;5114590;28;20023;-69
2022/12/02 03:46:20;;;;;;;22.83;13.15;;;;;;;;;;5114674;28;20496;-69
2022/12/02 03:48:46;;;;;;;24.88;13.15;;;;;;;;;;5113072;28;20035;-71
2022/12/02 03:51:13;;;;;;;26.83;14.18;;;;;;;;;;5114410;28;20030;-72
2022/12/02 03:53:39;;;;;;;26.70;13.77;;;;;;;;;;5114276;28;20072;-70
2022/12/02 03:56:06;;;;;;;23.00;13.25;;;;;;;;;;5114348;28;20024;-71
2022/12/02 03:58:38;;;;;;;22.52;13.00;;;;;;;;;;5112167;28;20505;-70
2022/12/02 04:01:04;;;;;;;23.48;13.95;;;;;;;;;;5114164;28;20024;-70
2022/12/02 04:03:30;;;;;;;24.50;13.98;;;;;;;;;;5114234;28;20505;-71
2022/12/02 04:05:55;;;;;;;23.38;13.55;;;;;;;;;;5114169;28;20109;-70
2022/12/02 04:08:21;;;;;;;27.45;14.75;;;;;;;;;;5113867;28;20038;-71
2022/12/02 04:10:46;;;;;;;23.33;13.45;;;;;;;;;;5114051;28;20035;-70
2022/12/02 04:13:11;;;;;;;26.08;13.27;;;;;;;;;;5114091;28;20488;-69
2022/12/02 04:15:37;;;;;;;22.70;12.55;;;;;;;;;;5114262;28;20090;-70
2022/12/02 04:18:02;;;;;;;22.15;12.90;;;;;;;;;;5114183;28;20031;-70
2022/12/02 04:20:28;;;;;;;25.98;14.10;;;;;;;;;;5114030;27;20377;-69
2022/12/02 04:22:53;;;;;;;23.23;13.10;;;;;;;;;;5113881;28;20023;-70
2022/12/02 04:25:19;;;;;;;30.67;14.55;;;;;;;;;;5113764;28;20106;-69
2022/12/02 04:27:44;;;;;;;22.27;12.20;;;;;;;;;;5113623;28;20031;-70
2022/12/02 04:30:10;;;;;;;21.00;12.43;;;;;;;;;;5113775;28;20016;-69
2022/12/02 04:32:35;;;;;;;22.52;13.18;;;;;;;;;;5108793;28;20024;-69
2022/12/02 04:35:01;;;;;;;25.77;13.57;;;;;;;;;;5091926;28;20036;-69
2022/12/02 04:37:26;;;;;;;22.27;12.32;;;;;;;;;;5092017;28;20032;-71
2022/12/02 04:39:52;;;;;;;22.50;11.73;;;;;;;;;;5093204;28;20520;-69
2022/12/02 04:42:17;;;;;;;24.50;13.73;;;;;;;;;;5091820;28;20062;-69
2022/12/02 04:44:43;;;;;;;22.85;13.27;;;;;;;;;;5093153;28;20027;-70
2022/12/02 04:47:08;;;;;;;24.00;12.95;;;;;;;;;;5093273;28;20024;-71
2022/12/02 04:49:34;;;;;;;26.33;13.27;;;;;;;;;;5093008;28;20459;-69
2022/12/02 04:51:59;;;;;;;21.15;11.93;;;;;;;;;;5093007;28;20032;-69
2022/12/02 04:54:25;;;;;;;23.63;13.00;;;;;;;;;;5093156;28;20024;-69
2022/12/02 04:56:50;;;;;;;24.45;13.27;;;;;;;;;;5092600;28;20115;-69
2022/12/02 04:59:16;;;;;;;25.23;13.93;;;;;;;;;;5092915;28;20475;-69
2022/12/02 05:01:41;;;;;;;23.50;12.25;;;;;;;;;;5093042;28;20034;-69
2022/12/02 05:04:06;;;;;;;24.75;14.05;;;;;;;;;;5092856;28;20050;-69
2022/12/02 05:06:32;;;;;;;23.67;12.48;;;;;;;;;;5093076;28;20028;-68
2022/12/02 05:08:57;;;;;;;25.27;13.45;;;;;;;;;;5092576;28;20138;-69
2022/12/02 05:11:23;;;;;;;24.10;12.13;;;;;;;;;;5092782;28;20024;-69
2022/12/02 05:13:48;;;;;;;24.95;13.13;;;;;;;;;;5092636;28;20100;-69
2022/12/02 05:16:14;;;;;;;25.00;13.60;;;;;;;;;;5092852;28;20107;-68
2022/12/02 05:18:39;;;;;;;24.30;13.30;;;;;;;;;;5092708;28;20028;-68
2022/12/02 05:21:05;;;;;;;21.95;12.38;;;;;;;;;;5092741;28;20103;-70
2022/12/02 05:23:30;;;;;;;21.88;12.52;;;;;;;;;;5092722;28;20020;-71
2022/12/02 05:25:56;;;;;;;21.38;12.40;;;;;;;;;;5103635;28;20023;-70
2022/12/02 05:28:21;;;;;;;21.85;12.75;;;;;;;;;;5112985;28;20463;-71
2022/12/02 05:30:47;;;;;;;18.35;11.00;;;;;;;;;;5112999;28;20024;-71
2022/12/02 05:33:12;;;;;;;23.55;12.77;;;;;;;;;;5112728;28;20015;-71
2022/12/02 05:35:38;;;;;;;22.13;12.48;;;;;;;;;;5111483;28;20109;-71
2022/12/02 05:38:03;;;;;;;23.58;13.85;;;;;;;;;;5112930;28;20425;-71
2022/12/02 05:40:29;;;;;;;23.90;12.43;;;;;;;;;;5112724;28;20032;-71
2022/12/02 05:42:54;;;;;;;23.92;12.77;;;;;;;;;;5112709;28;20020;-72
2022/12/02 05:45:22;;;;;;;23.67;12.60;;;;;;;;;;5112865;28;20070;-71
2022/12/02 05:47:52;;;;;;;23.25;13.07;;;;;;;;;;5112549;28;20019;-71
2022/12/02 05:50:19;;;;;;;27.95;14.13;;;;;;;;;;5094387;28;20055;-71
2022/12/02 05:52:45;;;;;;;25.58;13.88;;;;;;;;;;5112795;28;20032;-71
2022/12/02 05:55:15;;;;;;;25.35;13.57;;;;;;;;;;5112773;28;20020;-72
2022/12/02 05:57:40;;;;;;;26.23;13.93;;;;;;;;;;5112842;28;20111;-70
2022/12/02 06:00:21;;;;;;;25.58;14.38;;;;;;;;;;5112617;28;20493;-71
2022/12/02 06:02:52;;;;;;;22.17;13.07;;;;;;;;;;5112209;28;20024;-72
2022/12/02 06:05:23;;;;;;;22.20;11.82;;;;;;;;;;5112378;28;20510;-71
2022/12/02 06:07:52;;;;;;;23.67;12.68;;;;;;;;;;5112459;28;20037;-70
2022/12/02 06:10:31;;;;;;;21.80;11.45;;;;;;;;;;5112457;28;20047;-70
2022/12/02 06:13:01;;;;;;;22.85;11.52;;;;;;;;;;5112642;28;20065;-69
2022/12/02 06:15:33;;;;;;;;;;;;;;;;;;5112853;28;20024;-70
2022/12/02 06:17:58;;;;;;;24.92;11.77;;;;;;;;;;5112316;28;19950;-70
2022/12/02 06:20:29;;;;;;;22.30;11.20;;;;;;;;;;5112094;28;20105;-70
2022/12/02 06:22:55;;;;;;;21.20;11.82;;;;;;;;;;5115851;28;20055;-71
2022/12/02 06:25:27;;;;;;;19.52;10.98;;;;;;;;;;5115834;28;20034;-69
2022/12/02 06:27:58;;;;;;;21.85;12.18;;;;;;;;;;5116093;28;20031;-70
2022/12/02 06:30:23;;;;;;;29.63;13.55;;;;;;;;;;5116041;28;20045;-71
2022/12/02 06:32:54;;;;;;;23.92;13.35;;;;;;;;;;5115849;28;20027;-72
2022/12/02 06:35:24;;;;;;;;;;;;;;;;;;5116295;28;20056;-71
2022/12/02 06:37:53;;;;;;;19.60;11.07;;;;;;;;;;5115811;28;19912;-70
2022/12/02 06:40:27;;;;;;;21.90;11.70;;;;;;;;;;5115747;28;20033;-70
2022/12/02 06:42:52;;;;;;;22.80;12.73;;;;;;;;;;5115905;28;20386;-71
2022/12/02 06:45:23;;;;;;;20.92;12.00;;;;;;;;;;5115775;28;20027;-70
2022/12/02 06:47:59;;;;;;;23.70;12.38;;;;;;;;;;5115663;28;20027;-70
2022/12/02 06:50:31;;;;;;;19.77;12.57;;;;;;;;;;5115390;28;20058;-70
2022/12/02 06:53:19;;;;;;;21.13;11.77;;;;;;;;;;5115576;28;20024;-71
2022/12/02 06:55:45;;;;;;;19.25;10.48;;;;;;;;;;5115662;28;20107;-70
2022/12/02 06:58:33;;;;;;;20.52;12.48;;;;;;;;;;5115518;28;20523;-70
2022/12/02 07:01:10;;;;;;;22.10;12.63;;;;;;;;;;5115347;28;20089;-70
2022/12/02 07:03:43;;;;;;;20.75;11.57;;;;;;;;;;5115540;28;20023;-71
2022/12/02 07:06:27;;;;;;;21.25;11.57;;;;;;;;;;5115454;28;20039;-70
2022/12/02 07:08:56;;;;;;;22.83;12.38;;;;;;;;;;5115532;28;20042;-69
2022/12/02 07:11:48;;;;;;;23.10;12.50;;;;;;;;;;5115213;28;20020;-71
2022/12/02 07:14:28;;;;;;;21.25;11.60;;;;;;;;;;5115179;28;20100;-72
2022/12/02 07:17:02;;;;;;;24.70;14.27;;;;;;;;;;5114857;28;20038;-71
2022/12/02 07:19:39;;;;;;;20.13;10.05;;;;;;;;;;5114839;28;20069;-71
2022/12/02 07:22:21;;;;;;;24.30;12.75;;;;;;;;;;5114989;28;20031;-70
2022/12/02 07:25:20;;;;;;;21.38;11.27;;;;;;;;;;5114734;28;20028;-71
2022/12/02 07:27:48;;;;;;;21.17;11.70;;;;;;;;;;5114738;28;20032;-70
2022/12/02 07:30:22;;;;;;;25.13;13.57;;;;;;;;;;5114860;28;20024;-71
2022/12/02 07:32:48;;;;;;;18.63;11.63;;;;;;;;;;5114739;28;20020;-70
2022/12/02 07:35:13;;;;;;;19.98;10.98;;;;;;;;;;5114792;28;20048;-70
2022/12/02 07:37:39;;;;;;;20.13;11.70;;;;;;;;;;5114717;28;20415;-70
2022/12/02 07:40:05;;;;;;;21.38;12.25;;;;;;;;;;5114841;28;20050;-70
2022/12/02 07:42:30;;;;;;;20.92;12.68;;;;;;;;;;5113317;28;20355;-71
2022/12/02 07:44:56;;;;;;;20.00;11.80;;;;;;;;;;5114398;28;20020;-72
2022/12/02 07:47:21;;;;;;;18.17;10.93;;;;;;;;;;5114481;28;20431;-72
2022/12/02 07:49:47;;;;;;;17.25;10.60;;;;;;;;;;5114436;28;20084;-70
2022/12/02 07:52:12;;;;;;;19.65;10.73;;;;;;;;;;5114558;28;20035;-73
2022/12/02 07:54:37;;;;;;;22.00;12.40;;;;;;;;;;5114473;28;20489;-72
2022/12/02 07:57:03;;;;;;;18.58;11.07;;;;;;;;;;5114446;28;20107;-72
2022/12/02 07:59:28;;;;;;;20.23;12.07;;;;;;;;;;5113748;28;20076;-72
2022/12/02 08:01:54;;;;;;;24.50;11.68;;;;;;;;;;5114284;28;20108;-72
2022/12/02 08:04:19;;;;;;;19.73;10.68;;;;;;;;;;5114411;28;20386;-72
2022/12/02 08:06:45;;;;;;;20.17;11.80;;;;;;;;;;5114157;28;20105;-71
2022/12/02 08:09:10;;;;;;;22.15;11.63;;;;;;;;;;5113853;28;20031;-71
2022/12/02 08:11:36;;;;;;;22.90;12.18;;;;;;;;;;5114160;27;20023;-71
2022/12/02 08:14:01;;;;;;;23.40;13.98;;;;;;;;;;5113815;28;20038;-70
2022/12/02 08:16:27;;;;;;;22.85;12.32;;;;;;;;;;5105103;28;20024;-71
2022/12/02 08:18:53;;;;;;;22.30;12.15;;;;;;;;;;5103458;28;20520;-71
2022/12/02 08:21:18;;;;;;;20.98;14.10;;;;;;;;;;5105696;28;20031;-70
2022/12/02 08:23:44;;;;;;;18.77;11.15;;;;;;;;;;5106489;28;20150;-70
2022/12/02 08:26:09;;;;;;;25.52;10.68;;;;;;;;;;5109488;28;20526;-70
2022/12/02 08:28:35;;;;;;;19.63;11.07;;;;;;;;;;5101201;28;20094;-69
2022/12/02 08:31:00;;;;;;;19.98;10.85;;;;;;;;;;5110585;28;20103;-68
2022/12/02 08:33:26;;;;;;;20.35;11.10;;;;;;;;;;5110953;28;20111;-68
2022/12/02 08:35:51;;;;;;;20.48;10.48;;;;;;;;;;5098703;28;20066;-70
2022/12/02 08:38:17;;;;;;;19.67;11.57;;;;;;;;;;5100359;28;20072;-68
2022/12/02 08:40:44;;;;;;;19.98;12.00;;;;;;;;;;5108539;28;20051;-68
2022/12/02 08:43:10;;;;;;;18.45;10.60;;;;;;;;;;5098835;28;20096;-68
2022/12/02 08:45:35;;;;;;;18.73;10.00;;;;;;;;;;5093822;28;20028;-68
2022/12/02 08:48:01;;;;;;;18.35;11.27;;;;;;;;;;5097399;28;20106;-68
2022/12/02 08:50:26;;;;;;;15.18;9.13;;;;;;;;;;5101562;28;20059;-68
2022/12/02 08:52:52;;;;;;;17.25;10.35;;;;;;;;;;5109772;28;20028;-68
2022/12/02 08:55:17;;;;;;;17.45;9.82;;;;;;;;;;5103669;28;20063;-70
2022/12/02 08:57:43;;;;;;;18.95;9.98;;;;;;;;;;5098193;28;20016;-68
2022/12/02 09:00:10;;;;;;;19.75;9.25;;;;;;;;;;5099169;28;20019;-68
2022/12/02 09:02:36;;;;;;;15.05;9.35;;;;;;;;;;5110144;28;20116;-69
2022/12/02 09:05:02;;;;;;;16.55;8.43;;;;;;;;;;5105245;28;20429;-69
2022/12/02 09:07:28;;;;;;;16.40;8.93;;;;;;;;;;5110075;28;20076;-69
2022/12/02 09:09:53;;;;;;;15.32;8.40;;;;;;;;;;5094324;28;20032;-69
2022/12/02 09:12:19;;;;;;;15.18;9.23;;;;;;;;;;5103709;28;20036;-70
2022/12/02 09:14:44;;;;;;;15.13;8.63;;;;;;;;;;5103180;28;20056;-69
2022/12/02 09:17:09;;;;;;;15.55;8.18;;;;;;;;;;5089698;28;20051;-69
2022/12/02 09:19:35;;;;;;;16.35;8.88;;;;;;;;;;5102547;28;20518;-69
2022/12/02 09:22:00;;;;;;;15.23;8.48;;;;;;;;;;5105345;28;20031;-69
2022/12/02 09:24:26;;;;;;;16.33;9.60;;;;;;;;;;5102087;28;20050;-70
2022/12/02 09:26:51;;;;;;;13.98;8.27;;;;;;;;;;5097195;28;20474;-70
2022/12/02 09:29:17;;;;;;;14.32;8.20;;;;;;;;;;5093523;28;20035;-69
2022/12/02 09:31:42;;;;;;;21.75;9.13;;;;;;;;;;5094116;28;20095;-69
2022/12/02 09:34:08;;;;;;;17.77;10.18;;;;;;;;;;5096890;28;20389;-68
2022/12/02 09:36:33;;;;;;;15.43;8.32;;;;;;;;;;5100001;28;20044;-69
2022/12/02 09:38:59;;;;;;;18.77;9.40;;;;;;;;;;5098143;28;20032;-69
2022/12/02 09:41:24;;;;;;;19.00;9.68;;;;;;;;;;5102234;28;20111;-69
2022/12/02 09:43:50;;;;;;;13.02;7.53;;;;;;;;;;5104732;28;20407;-69
2022/12/02 09:46:16;;;;;;;14.02;7.72;;;;;;;;;;5105430;28;20068;-69
2022/12/02 09:48:41;;;;;;;19.17;9.90;;;;;;;;;;5104611;28;20069;-69
2022/12/02 09:51:09;;;;;;;15.85;9.15;;;;;;;;;;5099517;28;20449;-70
2022/12/02 09:53:38;;;;;;;14.48;8.75;;;;;;;;;;5093302;28;20028;-69
2022/12/02 09:56:05;;;;;;;17.13;8.82;;;;;;;;;;5101252;28;20052;-68
2022/12/02 09:58:30;;;;;;;21.38;10.52;;;;;;;;;;5106205;28;20040;-70
2022/12/02 10:00:56;;;;;;;14.32;7.22;;;;;;;;;;5108983;28;20028;-69
2022/12/02 10:03:26;;;;;;;16.25;9.00;;;;;;;;;;5093996;28;20024;-70
2022/12/02 10:05:52;;;;;;;;;;;;;;;;;;5096436;28;20059;-71
2022/12/02 10:08:22;;;;;;;18.75;9.43;;;;;;;;;;5102410;28;19954;-70
2022/12/02 10:10:48;;;;;;;17.00;8.35;;;;;;;;;;5092416;28;20078;-70
2022/12/02 10:13:19;;;;;;;18.83;10.20;;;;;;;;;;5111818;28;20547;-71
2022/12/02 10:15:45;;;;;;;17.15;8.52;;;;;;;;;;5102938;28;20038;-70
2022/12/02 10:18:17;;;;;;;19.50;11.07;;;;;;;;;;5092395;28;20081;-70
2022/12/02 10:20:42;;;;;;;15.48;9.85;;;;;;;;;;5092687;28;20020;-70
2022/12/02 10:23:11;;;;;;;16.05;9.52;;;;;;;;;;5106267;27;20122;-71
2022/12/02 10:25:39;;;;;;;25.88;9.15;;;;;;;;;;5112887;28;20539;-70
2022/12/02 10:28:21;;;;;;;16.75;8.38;;;;;;;;;;5109331;28;20028;-69
2022/12/02 10:31:03;;;;;;;15.82;9.07;;;;;;;;;;5106592;28;20054;-71
2022/12/02 10:33:34;;;;;;;21.30;9.45;;;;;;;;;;5106459;28;20011;-68
2022/12/02 10:35:59;;;;;;;;;;;;;;;;;;5107997;28;20044;-68
2022/12/02 10:38:36;;;;;;;14.13;7.78;;;;;;;;;;5096370;28;20251;-68
2022/12/02 10:41:14;;;;;;;17.63;8.00;;;;;;;;;;5112687;28;20099;-68
2022/12/02 10:44:04;;;;;;;17.23;10.05;;;;;;;;;;5106209;28;20020;-68
2022/12/02 10:46:31;;;;;;;14.02;8.13;;;;;;;;;;5087751;28;20036;-69
2022/12/02 10:49:15;;;;;;;20.38;9.20;;;;;;;;;;5101522;28;20036;-68
2022/12/02 10:51:40;;;;;;;12.20;7.05;;;;;;;;;;5110389;28;20478;-69
2022/12/02 10:54:22;;;;;;;14.95;8.70;;;;;;;;;;5103291;28;20098;-69
2022/12/02 10:56:48;;;;;;;8.80;5.22;;;;;;;;;;5099385;28;20114;-67
2022/12/02 10:59:15;;;;;;;18.33;10.57;;;;;;;;;;5104373;28;20027;-69
2022/12/02 11:01:42;;;;;;;18.50;9.60;;;;;;;;;;5110240;28;20076;-70
2022/12/02 11:04:11;;;;;;;21.90;10.77;;;;;;;;;;5112216;28;20028;-72
2022/12/02 11:06:37;;;;;;;22.75;10.40;;;;;;;;;;5100051;28;20083;-72
2022/12/02 11:09:02;;;;;;;19.45;9.77;;;;;;;;;;5100093;28;20024;-72
2022/12/02 11:11:28;;;;;;;13.15;6.38;;;;;;;;;;5108652;28;20534;-70
2022/12/02 11:14:02;;;;;;;17.10;9.30;;;;;;;;;;5100671;28;20378;-71
2022/12/02 11:16:27;;;;;;;16.17;8.90;;;;;;;;;;5100993;28;20024;-71
2022/12/02 11:19:21;;;;;;;18.85;8.18;;;;;;;;;;5108646;28;20485;-71
2022/12/02 11:21:46;;;;;;;16.42;8.32;;;;;;;;;;5098966;28;20091;-69
2022/12/02 11:24:21;;;;;;;18.17;9.15;;;;;;;;;;5111812;28;20031;-69
2022/12/02 11:26:58;;;;;;;16.50;8.93;;;;;;;;;;5100457;28;20078;-72
2022/12/02 11:29:25;;;;;;;17.63;8.20;;;;;;;;;;5094182;28;20066;-70
2022/12/02 11:32:17;;;;;;;18.42;9.30;;;;;;;;;;5094165;28;20020;-69
2022/12/02 11:34:45;;;;;;;17.20;8.68;;;;;;;;;;5092864;28;20419;-70
2022/12/02 11:37:28;;;;;;;15.65;8.50;;;;;;;;;;5093934;28;20020;-70
2022/12/02 11:39:57;;;;;;;17.23;8.18;;;;;;;;;;5094099;28;20028;-71
2022/12/02 11:42:28;;;;;;;19.75;10.27;;;;;;;;;;5094123;28;20059;-70
2022/12/02 11:45:11;;;;;;;15.60;7.75;;;;;;;;;;5094143;28;20378;-70
2022/12/02 11:47:37;;;;;;;19.77;10.70;;;;;;;;;;5094001;28;20490;-69
2022/12/02 11:50:15;;;;;;;20.23;9.23;;;;;;;;;;5093602;28;20028;-70
2022/12/02 11:52:54;;;;;;;20.70;8.60;;;;;;;;;;5109575;28;20439;-71
2022/12/02 11:55:24;;;;;;;19.85;8.85;;;;;;;;;;5114091;28;20028;-70
2022/12/02 11:57:51;;;;;;;18.27;8.32;;;;;;;;;;5096335;28;20383;-71
2022/12/02 12:00:22;;;;;;;16.15;8.57;;;;;;;;;;5113985;28;20034;-70
2022/12/02 12:03:13;;;;;;;19.75;10.02;;;;;;;;;;5113858;28;20390;-70
2022/12/02 12:05:40;;;;;;;20.38;9.32;;;;;;;;;;5113823;28;20031;-71
2022/12/02 12:08:06;;;;;;;28.40;10.13;;;;;;;;;;5113411;28;20034;-70
2022/12/02 12:10:34;;;;;;;28.02;11.13;;;;;;;;;;5113774;28;20015;-70
2022/12/02 12:13:12;;;;;;;16.50;7.93;;;;;;;;;;5113758;28;20098;-70
2022/12/02 12:15:57;;;;;;;23.05;10.77;;;;;;;;;;5113648;28;20043;-70
2022/12/02 12:18:47;;;;;;;22.10;12.18;;;;;;;;;;5113213;28;20031;-72
2022/12/02 12:21:35;;;;;;;18.73;9.32;;;;;;;;;;5113375;28;20027;-71
2022/12/02 12:26:42;;;;;;;;;;;;;;;;;;5113880;28;20032;-71
2022/12/02 12:29:08;;;;;;;16.52;7.45;;;;;;;;;;5113371;28;19923;-71
2022/12/02 12:31:33;;;;;;;16.13;7.47;;;;;;;;;;5113596;28;20019;-72
2022/12/02 12:33:59;;;;;;;17.50;8.27;;;;;;;;;;5113328;28;20023;-71
2022/12/02 12:36:24;;;;;;;17.15;7.53;;;;;;;;;;5113231;28;20507;-70
2022/12/02 12:38:50;;;;;;;17.52;5.70;;;;;;;;;;5113208;28;20501;-71
2022/12/02 12:41:15;;;;;;;16.55;7.78;;;;;;;;;;5113405;28;20030;-70
2022/12/02 12:43:41;;;;;;;19.83;8.80;;;;;;;;;;5113291;28;20074;-71
2022/12/02 12:46:06;;;;;;;24.52;9.73;;;;;;;;;;5113157;28;20027;-72
2022/12/02 12:48:32;;;;;;;20.20;8.95;;;;;;;;;;5112848;28;20032;-70
2022/12/02 12:50:57;;;;;;;14.07;6.47;;;;;;;;;;5113036;28;20543;-71
2022/12/02 12:53:23;;;;;;;19.23;9.55;;;;;;;;;;5113070;28;20022;-71
2022/12/02 12:55:48;;;;;;;19.30;9.38;;;;;;;;;;5112968;28;20027;-71
2022/12/02 12:58:14;;;;;;;21.58;9.38;;;;;;;;;;5113043;28;20076;-71
2022/12/02 13:00:40;;;;;;;16.85;9.20;;;;;;;;;;5113006;28;20023;-71
2022/12/02 13:03:05;;;;;;;17.65;8.57;;;;;;;;;;5105232;28;20024;-71
2022/12/02 13:05:31;;;;;;;21.52;9.77;;;;;;;;;;5100567;28;20463;-72
2022/12/02 13:07:57;;;;;;;21.33;8.15;;;;;;;;;;5092515;28;20035;-71
2022/12/02 13:10:22;;;;;;;20.98;9.45;;;;;;;;;;5092430;28;20106;-70
2022/12/02 13:12:48;;;;;;;23.80;10.93;;;;;;;;;;5092540;28;20032;-70
2022/12/02 13:15:13;;;;;;;20.48;9.68;;;;;;;;;;5091161;28;20107;-71
2022/12/02 13:17:39;;;;;;;21.23;9.57;;;;;;;;;;5092273;28;20090;-71
2022/12/02 13:20:06;;;;;;;20.10;8.18;;;;;;;;;;5092170;28;20509;-70
2022/12/02 13:22:31;;;;;;;25.65;11.77;;;;;;;;;;5092227;28;20085;-71
2022/12/02 13:24:57;;;;;;;27.05;11.23;;;;;;;;;;5095306;28;20028;-70
2022/12/02 13:27:22;;;;;;;24.08;11.40;;;;;;;;;;5112715;28;20020;-70
2022/12/02 13:29:48;;;;;;;18.08;9.20;;;;;;;;;;5112640;28;20031;-69
2022/12/02 13:32:14;;;;;;;22.75;10.50;;;;;;;;;;5118831;28;20060;-70
2022/12/02 13:34:40;;;;;;;19.83;10.90;;;;;;;;;;5119316;28;20097;-69
2022/12/02 13:37:05;;;;;;;22.42;11.90;;;;;;;;;;5118174;28;20435;-71
2022/12/02 13:39:31;;;;;;;19.33;9.57;;;;;;;;;;5119661;27;20489;-69
2022/12/02 13:41:56;;;;;;;24.05;10.80;;;;;;;;;;5119352;27;20043;-69
2022/12/02 13:44:22;;;;;;;22.15;10.52;;;;;;;;;;5119275;27;20023;-70
2022/12/02 13:46:47;;;;;;;20.00;9.02;;;;;;;;;;5119053;27;20028;-69
2022/12/02 13:49:13;;;;;;;19.15;9.27;;;;;;;;;;5119176;27;20035;-69
2022/12/02 13:51:38;;;;;;;25.67;10.57;;;;;;;;;;5119121;27;20019;-69
2022/12/02 13:54:03;;;;;;;22.83;10.40;;;;;;;;;;5119076;27;20416;-67
2022/12/02 13:56:29;;;;;;;24.20;10.63;;;;;;;;;;5119263;27;20022;-69
2022/12/02 13:58:54;;;;;;;26.15;12.50;;;;;;;;;;5119244;27;20084;-70
2022/12/02 14:01:20;;;;;;;24.95;11.35;;;;;;;;;;5119022;27;20048;-69
2022/12/02 14:03:45;;;;;;;24.30;10.85;;;;;;;;;;5119239;28;20026;-70
2022/12/02 14:06:11;;;;;;;24.75;11.63;;;;;;;;;;5119059;27;20023;-70
2022/12/02 14:08:36;;;;;;;17.13;8.70;;;;;;;;;;5118725;27;20497;-70
2022/12/02 14:11:02;;;;;;;20.83;11.18;;;;;;;;;;5118679;27;20020;-70
2022/12/02 14:13:27;;;;;;;21.55;10.40;;;;;;;;;;5117424;28;20095;-69
2022/12/02 14:15:53;;;;;;;21.23;10.35;;;;;;;;;;5118682;28;20035;-70
2022/12/02 14:18:18;;;;;;;14.80;8.82;;;;;;;;;;5118964;27;20546;-68
2022/12/02 14:20:44;;;;;;;18.80;9.32;;;;;;;;;;5118840;27;20212;-69
2022/12/02 14:23:11;;;;;;;26.02;11.85;;;;;;;;;;5117588;28;20030;-70
2022/12/02 14:25:36;;;;;;;20.88;10.00;;;;;;;;;;5118829;27;20397;-68
2022/12/02 14:28:02;;;;;;;25.33;10.00;;;;;;;;;;5118849;27;20099;-69
2022/12/02 14:30:28;;;;;;;13.85;7.40;;;;;;;;;;5118772;27;20027;-69
2022/12/02 14:32:53;;;;;;;24.92;13.80;;;;;;;;;;5118943;28;20024;-69